createdAt,value
2023-01-30T00:02:14.825Z,10.50
2023-01-30T00:04:45.932Z,9.90
2023-01-30T00:07:16.713Z,8.40
2023-01-30T00:09:47.684Z,6.80
2023-01-30T00:12:18.564Z,9.70
2023-01-30T00:14:49.401Z,9.20
2023-01-30T00:17:20.071Z,8.70
2023-01-30T00:19:50.927Z,9.90
2023-01-30T00:22:21.524Z,8.50
2023-01-30T00:24:52.286Z,7.80
2023-01-30T00:27:23.164Z,9.40
2023-01-30T00:30:02.528Z,10.40
2023-01-30T00:32:34.702Z,8.10
2023-01-30T00:35:06.852Z,7.30
2023-01-30T00:37:37.690Z,10.30
2023-01-30T00:40:10.765Z,5.60
2023-01-30T00:45:57.861Z,5.70
2023-01-30T00:48:29.062Z,9.30
2023-01-30T00:51:00.025Z,8.10
2023-01-30T00:53:31.470Z,8.70
2023-01-30T00:56:02.193Z,5.60
2023-01-30T00:58:33.747Z,8.70
2023-01-30T01:01:04.629Z,8.80
2023-01-30T01:03:35.408Z,11.10
2023-01-30T01:06:07.050Z,11.60
2023-01-30T01:08:37.796Z,5.10
2023-01-30T01:11:08.811Z,6.30
2023-01-30T01:13:39.596Z,9.30
2023-01-30T01:16:10.549Z,9.10
2023-01-30T01:18:41.221Z,8.10
2023-01-30T01:21:13.281Z,10.00
2023-01-30T01:23:44.509Z,10.50
2023-01-30T01:26:15.806Z,9.30
2023-01-30T01:28:46.702Z,8.40
2023-01-30T01:31:18.417Z,6.10
2023-01-30T01:33:49.303Z,9.90
2023-01-30T01:36:49.656Z,8.20
2023-01-30T01:39:10.762Z,8.50
2023-01-30T01:41:41.697Z,7.40
2023-01-30T01:44:13.962Z,9.70
2023-01-30T01:46:49.859Z,8.80
2023-01-30T01:49:25.076Z,8.10
2023-01-30T01:51:59.492Z,12.90
2023-01-30T01:54:35.307Z,10.20
2023-01-30T01:57:11.938Z,8.90
2023-01-30T01:59:48.268Z,9.60
2023-01-30T02:02:21.329Z,8.20
2023-01-30T02:05:06.919Z,9.10
2023-01-30T02:07:43.333Z,10.30
2023-01-30T02:10:20.237Z,9.40
2023-01-30T02:12:51.884Z,8.60
2023-01-30T02:15:24.690Z,9.40
2023-01-30T02:17:55.520Z,7.70
2023-01-30T02:20:35.053Z,10.20
2023-01-30T02:23:39.877Z,8.60
2023-01-30T02:26:48.584Z,10.00
2023-01-30T02:29:43.927Z,11.30
2023-01-30T02:32:24.884Z,10.10
2023-01-30T02:35:04.326Z,10.00
2023-01-30T02:37:48.886Z,6.10
2023-01-30T02:40:33.333Z,10.20
2023-01-30T02:43:11.559Z,9.30
2023-01-30T02:45:49.258Z,7.60
2023-01-30T02:48:24.983Z,9.30
2023-01-30T02:51:00.273Z,8.20
2023-01-30T02:53:34.289Z,9.40
2023-01-30T02:56:05.930Z,8.20
2023-01-30T02:58:42.706Z,9.80
2023-01-30T03:01:34.380Z,9.20
2023-01-30T03:04:38.846Z,7.50
2023-01-30T03:07:25.748Z,9.00
2023-01-30T03:10:05.845Z,7.10
2023-01-30T03:12:48.932Z,9.10
2023-01-30T03:15:29.600Z,9.00
2023-01-30T03:18:01.989Z,5.70
2023-01-30T03:20:37.592Z,10.10
2023-01-30T03:23:10.316Z,7.00
2023-01-30T03:25:43.993Z,9.00
2023-01-30T03:28:19.260Z,6.60
2023-01-30T03:30:50.217Z,7.70
2023-01-30T03:33:21.038Z,9.50
2023-01-30T03:35:53.991Z,6.70
2023-01-30T03:38:24.680Z,4.10
2023-01-30T03:40:55.336Z,8.10
2023-01-30T03:43:26.251Z,4.00
2023-01-30T03:45:57.118Z,7.50
2023-01-30T03:48:28.656Z,7.90
2023-01-30T03:51:00.307Z,9.00
2023-01-30T03:53:31.260Z,8.00
2023-01-30T03:56:11.630Z,6.40
2023-01-30T03:58:42.824Z,9.70
2023-01-30T04:01:26.158Z,10.10
2023-01-30T04:03:57.071Z,8.30
2023-01-30T04:06:28.428Z,7.90
2023-01-30T04:09:00.030Z,8.20
2023-01-30T04:11:50.908Z,11.20
2023-01-30T04:14:22.167Z,9.30
2023-01-30T04:17:12.547Z,8.00
2023-01-30T04:19:49.385Z,6.40
2023-01-30T04:22:20.149Z,10.20
2023-01-30T04:24:51.558Z,9.00
2023-01-30T04:27:22.371Z,7.50
2023-01-30T04:30:25.502Z,5.40
2023-01-30T04:33:01.048Z,6.50
2023-01-30T04:35:32.338Z,8.50
2023-01-30T04:38:03.275Z,7.60
2023-01-30T04:40:35.123Z,9.00
2023-01-30T04:43:05.747Z,8.00
2023-01-30T04:45:39.472Z,10.30
2023-01-30T04:48:10.362Z,9.40
2023-01-30T04:50:42.617Z,9.00
2023-01-30T04:53:13.936Z,8.40
2023-01-30T04:55:44.797Z,7.30
2023-01-30T04:58:15.842Z,7.70
2023-01-30T05:00:46.745Z,7.80
2023-01-30T05:03:18.176Z,8.30
2023-01-30T05:05:50.506Z,7.10
2023-01-30T05:08:21.198Z,7.80
2023-01-30T05:10:51.860Z,8.20
2023-01-30T05:13:22.510Z,7.20
2023-01-30T05:15:53.219Z,8.10
2023-01-30T05:18:24.029Z,6.70
2023-01-30T05:20:55.653Z,7.10
2023-01-30T05:23:26.607Z,8.70
2023-01-30T05:25:57.457Z,9.20
2023-01-30T05:28:28.908Z,7.90
2023-01-30T05:31:03.966Z,6.10
2023-01-30T05:33:35.189Z,5.80
2023-01-30T05:36:06.547Z,7.60
2023-01-30T05:38:37.234Z,9.00
2023-01-30T05:41:09.309Z,6.40
2023-01-30T05:43:40.297Z,9.60
2023-01-30T05:46:13.854Z,7.20
2023-01-30T05:48:44.859Z,7.80
2023-01-30T05:51:20.817Z,6.00
2023-01-30T05:53:51.978Z,5.60
2023-01-30T05:56:23.061Z,9.60
2023-01-30T05:58:55.544Z,6.70
2023-01-30T06:01:27.563Z,9.20
2023-01-30T06:03:59.385Z,9.10
2023-01-30T06:06:30.172Z,7.50
2023-01-30T06:09:01.143Z,8.00
2023-01-30T06:11:32.759Z,10.40
2023-01-30T06:14:03.430Z,8.50
2023-01-30T06:16:34.240Z,7.80
2023-01-30T06:19:05.184Z,6.90
2023-01-30T06:21:36.328Z,6.10
2023-01-30T06:24:07.864Z,7.80
2023-01-30T06:26:38.819Z,7.80
2023-01-30T06:29:09.721Z,7.10
2023-01-30T06:31:40.572Z,9.20
2023-01-30T06:34:11.965Z,8.20
2023-01-30T06:36:44.006Z,7.00
2023-01-30T06:39:15.189Z,7.70
2023-01-30T06:41:45.851Z,4.00
2023-01-30T06:44:17.828Z,7.60
2023-01-30T06:46:48.850Z,6.40
2023-01-30T06:49:19.673Z,6.60
2023-01-30T06:51:50.317Z,6.50
2023-01-30T06:54:21.049Z,7.90
2023-01-30T06:56:52.114Z,5.40
2023-01-30T06:59:22.918Z,6.10
2023-01-30T07:01:53.846Z,5.30
2023-01-30T07:04:24.539Z,6.20
2023-01-30T07:06:55.232Z,8.20
2023-01-30T07:09:25.984Z,4.90
2023-01-30T07:11:56.663Z,6.00
2023-01-30T07:14:27.355Z,7.20
2023-01-30T07:16:58.106Z,6.90
2023-01-30T07:19:29.123Z,6.40
2023-01-30T07:22:01.019Z,3.90
2023-01-30T07:24:33.252Z,15.00
2023-01-30T07:27:04.045Z,9.00
2023-01-30T07:29:35.589Z,6.70
2023-01-30T07:32:07.612Z,7.10
2023-01-30T07:34:40.115Z,5.50
2023-01-30T07:37:11.472Z,3.50
2023-01-30T07:39:42.186Z,6.20
2023-01-30T07:42:12.985Z,5.40
2023-01-30T07:44:44.384Z,5.20
2023-01-30T07:47:15.204Z,6.20
2023-01-30T07:49:46.092Z,5.10
2023-01-30T07:52:16.889Z,7.00
2023-01-30T07:54:47.589Z,4.80
2023-01-30T07:57:18.232Z,5.50
2023-01-30T07:59:49.005Z,2.50
2023-01-30T08:02:19.693Z,4.50
2023-01-30T08:04:50.920Z,4.20
2023-01-30T08:07:21.647Z,5.10
2023-01-30T08:09:52.363Z,6.60
2023-01-30T08:12:23.183Z,4.90
2023-01-30T08:14:53.841Z,4.50
2023-01-30T08:17:24.743Z,7.80
2023-01-30T08:19:55.576Z,4.20
2023-01-30T08:22:26.443Z,4.80
2023-01-30T08:24:57.433Z,4.60
2023-01-30T08:27:28.141Z,4.90
2023-01-30T08:29:58.849Z,4.70
2023-01-30T08:32:29.513Z,5.20
2023-01-30T08:35:00.451Z,7.70
2023-01-30T08:37:31.272Z,6.90
2023-01-30T08:40:01.904Z,5.90
2023-01-30T08:42:32.657Z,5.40
2023-01-30T08:45:04.033Z,5.20
2023-01-30T08:47:35.701Z,4.70
2023-01-30T08:50:08.583Z,1.70
2023-01-30T08:52:39.182Z,3.60
2023-01-30T08:55:12.200Z,5.10
2023-01-30T09:00:14.960Z,3.10
2023-01-30T09:02:48.710Z,3.80
2023-01-30T09:05:19.679Z,3.90
2023-01-30T09:07:50.658Z,4.90
2023-01-30T09:10:22.280Z,3.60
2023-01-30T09:12:53.324Z,3.20
2023-01-30T09:15:24.114Z,3.10
2023-01-30T09:17:55.765Z,2.90
2023-01-30T09:20:26.654Z,3.30
2023-01-30T09:22:57.432Z,3.00
2023-01-30T09:25:28.256Z,2.30
2023-01-30T09:27:59.962Z,2.90
2023-01-30T09:30:30.835Z,2.30
2023-01-30T09:33:02.045Z,2.70
2023-01-30T09:35:32.957Z,2.10
2023-01-30T09:38:05.683Z,5.70
2023-01-30T09:40:47.718Z,1.80
2023-01-30T09:43:38.746Z,2.90
2023-01-30T09:46:18.617Z,2.90
2023-01-30T09:49:00.585Z,2.20
2023-01-30T09:51:49.844Z,3.30
2023-01-30T09:54:31.014Z,3.40
2023-01-30T09:57:20.862Z,2.20
2023-01-30T09:59:59.077Z,2.30
2023-01-30T10:02:47.313Z,2.20
2023-01-30T10:05:18.900Z,2.80
2023-01-30T10:08:06.317Z,4.70
2023-01-30T10:10:52.995Z,2.80
2023-01-30T10:13:53.349Z,1.90
2023-01-30T10:16:29.797Z,7.10
2023-01-30T10:19:35.231Z,1.60
2023-01-30T10:22:17.480Z,2.30
2023-01-30T10:25:00.298Z,2.40
2023-01-30T10:27:32.424Z,1.10
2023-01-30T10:30:08.450Z,2.50
2023-01-30T10:32:45.389Z,1.50
2023-01-30T10:35:21.887Z,1.20
2023-01-30T10:37:59.061Z,1.40
2023-01-30T10:40:35.832Z,2.30
2023-01-30T10:43:18.196Z,2.30
2023-01-30T10:45:54.507Z,3.80
2023-01-30T10:48:53.818Z,1.90
2023-01-30T10:51:43.878Z,2.00
2023-01-30T10:54:21.632Z,1.30
2023-01-30T10:57:02.075Z,1.90
2023-01-30T10:59:43.392Z,1.60
2023-01-30T11:02:25.107Z,1.90
2023-01-30T11:05:01.673Z,1.90
2023-01-30T11:07:34.862Z,2.10
2023-01-30T11:10:12.143Z,1.20
2023-01-30T11:12:42.765Z,1.70
2023-01-30T11:15:14.236Z,2.30
2023-01-30T11:17:46.333Z,2.40
2023-01-30T11:20:21.425Z,1.30
2023-01-30T11:23:06.722Z,1.40
2023-01-30T11:26:05.505Z,1.80
2023-01-30T11:28:48.705Z,1.80
2023-01-30T11:31:38.944Z,1.40
2023-01-30T11:34:17.886Z,1.30
2023-01-30T11:36:49.177Z,2.50
2023-01-30T11:39:29.777Z,1.50
2023-01-30T11:42:04.921Z,1.70
2023-01-30T11:44:38.131Z,1.60
2023-01-30T11:47:14.876Z,1.60
2023-01-30T11:51:31.962Z,2.20
2023-01-30T11:52:46.784Z,2.90
2023-01-30T11:55:21.238Z,2.60
2023-01-30T11:57:54.768Z,1.90
2023-01-30T12:00:32.911Z,1.60
2023-01-30T12:03:11.475Z,1.60
2023-01-30T12:05:45.710Z,1.70
2023-01-30T12:08:40.643Z,2.00
2023-01-30T12:11:28.197Z,1.80
2023-01-30T12:14:09.116Z,2.40
2023-01-30T12:16:53.578Z,2.20
2023-01-30T12:19:38.357Z,3.30
2023-01-30T12:22:19.618Z,1.90
2023-01-30T12:24:59.266Z,2.40
2023-01-30T12:27:46.136Z,2.80
2023-01-30T12:30:25.952Z,2.90
2023-01-30T12:35:52.235Z,3.20
2023-01-30T12:38:40.344Z,1.80
2023-01-30T12:41:29.437Z,2.40
2023-01-30T12:44:20.544Z,2.30
2023-01-30T12:47:11.848Z,3.50
2023-01-30T12:49:56.605Z,2.10
2023-01-30T12:52:57.748Z,3.30
2023-01-30T12:55:40.654Z,1.80
2023-01-30T12:58:20.379Z,2.00
2023-01-30T13:01:02.455Z,1.80
2023-01-30T13:03:41.711Z,1.20
2023-01-30T13:06:26.943Z,2.10
2023-01-30T13:09:11.889Z,3.00
2023-01-30T13:11:59.111Z,3.10
2023-01-30T13:14:38.009Z,3.40
2023-01-30T13:17:25.768Z,1.60
2023-01-30T13:20:04.615Z,4.70
2023-01-30T13:22:42.338Z,3.60
2023-01-30T13:25:23.989Z,2.60
2023-01-30T13:27:59.898Z,2.70
2023-01-30T13:30:33.539Z,3.00
2023-01-30T13:33:11.275Z,3.90
2023-01-30T13:35:48.022Z,1.60
2023-01-30T13:38:23.107Z,3.30
2023-01-30T13:40:57.715Z,2.20
2023-01-30T13:43:31.746Z,3.70
2023-01-30T13:46:06.443Z,2.60
2023-01-30T13:48:50.923Z,2.90
2023-01-30T13:51:33.800Z,1.70
2023-01-30T13:54:14.291Z,5.90
2023-01-30T13:56:49.903Z,4.70
2023-01-30T13:59:37.622Z,2.10
2023-01-30T14:02:23.434Z,2.30
2023-01-30T14:04:55.823Z,2.50
2023-01-30T14:07:31.162Z,2.40
2023-01-30T14:10:20.354Z,4.30
2023-01-30T14:12:53.541Z,2.00
2023-01-30T14:15:31.854Z,3.20
2023-01-30T14:18:07.349Z,2.00
2023-01-30T14:20:46.369Z,4.20
2023-01-30T14:23:29.867Z,5.40
2023-01-30T14:26:01.169Z,2.30
2023-01-30T14:28:51.628Z,1.90
2023-01-30T14:31:55.050Z,2.10
2023-01-30T14:34:59.019Z,2.40
2023-01-30T14:37:46.311Z,3.90
2023-01-30T14:40:36.436Z,3.40
2023-01-30T14:43:40.160Z,1.70
2023-01-30T14:46:28.933Z,4.00
2023-01-30T14:49:05.656Z,1.20
2023-01-30T14:51:43.732Z,2.10
2023-01-30T14:54:27.699Z,1.80
2023-01-30T14:57:06.681Z,3.20
2023-01-30T14:59:41.084Z,3.60
2023-01-30T15:02:25.754Z,3.10
2023-01-30T15:05:07.223Z,1.90
2023-01-30T15:07:44.147Z,2.00
2023-01-30T15:10:37.442Z,2.60
2023-01-30T15:13:38.253Z,3.40
2023-01-30T15:16:28.530Z,3.10
2023-01-30T15:19:16.483Z,5.30
2023-01-30T15:22:02.529Z,3.40
2023-01-30T15:25:12.097Z,2.50
2023-01-30T15:27:58.631Z,3.00
2023-01-30T15:30:42.857Z,2.30
2023-01-30T15:33:29.917Z,3.80
2023-01-30T15:36:18.414Z,3.00
2023-01-30T15:38:56.988Z,5.50
2023-01-30T15:41:28.296Z,3.00
2023-01-30T15:44:24.128Z,2.80
2023-01-30T15:47:02.430Z,5.10
2023-01-30T15:49:55.431Z,4.60
2023-01-30T15:52:32.622Z,1.90
2023-01-30T15:55:03.841Z,1.30
2023-01-30T15:57:38.051Z,3.30
2023-01-30T16:00:20.921Z,2.20
2023-01-30T16:02:52.291Z,0.70
2023-01-30T16:05:25.533Z,3.50
2023-01-30T16:07:58.904Z,4.00
2023-01-30T16:10:31.458Z,6.50
2023-01-30T16:13:05.139Z,3.90
2023-01-30T16:15:43.041Z,3.60
2023-01-30T16:18:27.913Z,4.10
2023-01-30T16:21:02.959Z,6.30
2023-01-30T16:23:39.305Z,3.70
2023-01-30T16:26:17.522Z,2.90
2023-01-30T16:28:49.267Z,3.30
2023-01-30T16:31:20.959Z,2.30
2023-01-30T16:33:54.500Z,5.10
2023-01-30T16:36:40.462Z,3.00
2023-01-30T16:39:30.061Z,3.30
2023-01-30T16:42:02.224Z,4.60
2023-01-30T16:44:33.845Z,3.70
2023-01-30T16:47:07.754Z,3.20
2023-01-30T16:49:48.306Z,4.10
2023-01-30T16:52:22.414Z,2.40
2023-01-30T16:54:55.328Z,5.40
2023-01-30T16:57:33.371Z,4.00
2023-01-30T17:00:07.295Z,5.10
2023-01-30T17:02:41.244Z,7.00
2023-01-30T17:05:20.956Z,4.70
2023-01-30T17:07:53.833Z,5.30
2023-01-30T17:11:04.498Z,7.00
2023-01-30T17:13:37.789Z,4.00
2023-01-30T17:16:27.478Z,5.20
2023-01-30T17:18:59.664Z,5.60
2023-01-30T17:21:33.917Z,7.90
2023-01-30T17:24:06.528Z,2.00
2023-01-30T17:26:40.721Z,5.30
2023-01-30T17:29:23.650Z,7.70
2023-01-30T17:31:55.899Z,7.40
2023-01-30T17:34:28.771Z,2.40
2023-01-30T17:36:59.597Z,5.90
2023-01-30T17:39:30.390Z,4.70
2023-01-30T17:42:01.099Z,5.50
2023-01-30T17:44:31.785Z,3.10
2023-01-30T17:47:02.420Z,5.00
2023-01-30T17:49:33.612Z,3.40
2023-01-30T17:52:04.240Z,4.60
2023-01-30T17:54:34.904Z,3.40
2023-01-30T17:57:09.657Z,6.40
2023-01-30T17:59:40.405Z,7.20
2023-01-30T18:02:12.413Z,4.00
2023-01-30T18:04:43.026Z,5.20
2023-01-30T18:07:17.624Z,7.20
2023-01-30T18:09:48.404Z,3.00
2023-01-30T18:12:19.033Z,5.80
2023-01-30T18:14:49.775Z,5.70
2023-01-30T18:17:21.430Z,6.10
2023-01-30T18:19:54.314Z,7.00
2023-01-30T18:22:25.217Z,7.20
2023-01-30T18:24:55.888Z,6.00
2023-01-30T18:27:26.549Z,6.50
2023-01-30T18:29:57.292Z,3.90
2023-01-30T18:32:28.139Z,6.10
2023-01-30T18:34:59.243Z,3.50
2023-01-30T18:37:30.407Z,3.40
2023-01-30T18:40:01.083Z,4.00
2023-01-30T18:42:31.824Z,4.90
2023-01-30T18:45:02.575Z,4.70
2023-01-30T18:47:36.274Z,2.50
2023-01-30T18:50:08.278Z,5.80
2023-01-30T18:52:39.319Z,5.50
2023-01-30T18:55:11.091Z,3.20
2023-01-30T18:57:41.793Z,6.80
2023-01-30T19:00:16.586Z,6.70
2023-01-30T19:02:51.097Z,7.80
2023-01-30T19:05:22.168Z,4.80
2023-01-30T19:07:53.208Z,3.80
2023-01-30T19:10:24.102Z,4.30
2023-01-30T19:13:12.679Z,5.60
2023-01-30T19:15:43.341Z,5.90
2023-01-30T19:18:14.161Z,6.50
2023-01-30T19:20:44.915Z,3.50
2023-01-30T19:23:15.794Z,6.40
2023-01-30T19:25:53.362Z,8.00
2023-01-30T19:28:24.986Z,4.70
2023-01-30T19:30:56.710Z,5.40
2023-01-30T19:33:27.988Z,4.80
2023-01-30T19:36:08.445Z,4.50
2023-01-30T19:38:40.023Z,5.90
2023-01-30T19:41:15.692Z,3.00
2023-01-30T19:43:47.646Z,6.80
2023-01-30T19:46:18.913Z,6.80
2023-01-30T19:48:51.164Z,5.60
2023-01-30T19:51:25.148Z,7.20
2023-01-30T19:53:58.200Z,8.80
2023-01-30T19:56:30.307Z,10.20
2023-01-30T19:59:02.303Z,4.90
2023-01-30T20:01:37.677Z,7.30
2023-01-30T20:04:08.845Z,4.90
2023-01-30T20:06:43.257Z,5.80
2023-01-30T20:09:16.182Z,4.40
2023-01-30T20:11:46.978Z,7.40
2023-01-30T20:14:17.676Z,3.30
2023-01-30T20:16:48.279Z,5.10
2023-01-30T20:19:19.502Z,3.70
2023-01-30T20:21:50.758Z,6.50
2023-01-30T20:24:21.751Z,9.40
2023-01-30T20:26:52.463Z,9.00
2023-01-30T20:29:23.642Z,6.90
2023-01-30T20:31:56.680Z,5.80
2023-01-30T20:34:27.347Z,10.20
2023-01-30T20:36:59.762Z,7.00
2023-01-30T20:39:30.825Z,5.60
2023-01-30T20:42:01.497Z,4.20
2023-01-30T20:44:32.782Z,8.10
2023-01-30T20:47:03.743Z,6.30
2023-01-30T20:49:34.469Z,3.90
2023-01-30T20:52:05.397Z,7.30
2023-01-30T20:54:37.361Z,6.80
2023-01-30T20:57:08.477Z,7.60
2023-01-30T20:59:39.199Z,4.60
2023-01-30T21:02:11.198Z,5.40
2023-01-30T21:04:42.024Z,5.60
2023-01-30T21:07:12.792Z,7.00
2023-01-30T21:09:43.591Z,5.70
2023-01-30T21:12:14.384Z,7.90
2023-01-30T21:14:45.145Z,5.20
2023-01-30T21:17:15.912Z,7.00
2023-01-30T21:19:46.542Z,5.80
2023-01-30T21:22:17.839Z,6.60
2023-01-30T21:24:48.648Z,3.80
2023-01-30T21:27:20.418Z,7.90
2023-01-30T21:29:51.120Z,6.60
2023-01-30T21:32:22.092Z,5.80
2023-01-30T21:34:52.872Z,5.10
2023-01-30T21:37:41.012Z,5.30
2023-01-30T21:40:33.402Z,7.00
2023-01-30T21:43:24.239Z,7.40
2023-01-30T21:45:59.572Z,6.50
2023-01-30T21:48:30.500Z,4.50
2023-01-30T21:51:09.090Z,7.90
2023-01-30T21:53:40.075Z,5.90
2023-01-30T21:56:11.469Z,4.20
2023-01-30T21:58:44.037Z,6.40
2023-01-30T22:01:14.801Z,7.50
2023-01-30T22:03:45.611Z,5.60
2023-01-30T22:06:16.499Z,8.60
2023-01-30T22:08:47.322Z,6.80
2023-01-30T22:11:19.584Z,6.10
2023-01-30T22:13:50.984Z,8.10
2023-01-30T22:16:23.649Z,8.80
2023-01-30T22:19:00.864Z,9.00
2023-01-30T22:21:37.395Z,6.10
2023-01-30T22:24:11.694Z,2.80
2023-01-30T22:26:42.538Z,9.70
2023-01-30T22:29:15.797Z,7.30
2023-01-30T22:34:16.130Z,5.00
2023-01-30T22:36:48.037Z,5.40
2023-01-30T22:39:18.914Z,3.20
2023-01-30T22:41:50.160Z,5.60
2023-01-30T22:44:21.075Z,6.10
2023-01-30T22:46:53.231Z,6.70
2023-01-30T22:49:24.261Z,5.50
2023-01-30T22:51:55.306Z,3.70
2023-01-30T22:54:27.219Z,6.50
2023-01-30T22:56:58.609Z,4.80
2023-01-30T22:59:30.320Z,3.20
2023-01-30T23:02:01.539Z,4.90
2023-01-30T23:04:33.199Z,6.80
2023-01-30T23:07:04.190Z,4.60
2023-01-30T23:09:34.967Z,10.20
2023-01-30T23:12:23.336Z,8.50
2023-01-30T23:14:54.391Z,5.90
2023-01-30T23:17:39.270Z,8.30
2023-01-30T23:20:13.109Z,10.30
2023-01-30T23:22:44.013Z,6.40
2023-01-30T23:25:14.781Z,8.00
2023-01-30T23:27:45.920Z,10.80
2023-01-30T23:30:18.483Z,8.30
2023-01-30T23:32:49.943Z,7.30
2023-01-30T23:35:21.205Z,9.40
2023-01-30T23:38:09.624Z,6.40
2023-01-30T23:40:40.460Z,5.50
2023-01-30T23:43:11.514Z,6.10
2023-01-30T23:45:43.241Z,12.60
2023-01-30T23:48:14.251Z,11.10
2023-01-30T23:50:45.359Z,7.50
2023-01-30T23:53:16.463Z,3.80
2023-01-30T23:55:54.756Z,7.60
2023-01-30T23:58:25.860Z,7.50
